Time;durP1;ratioP1;P1;durP2;ratioP2;P2;SDS_P1;SDS_P2;PMS_P1;PMS_P2;Temp;Humidity;BMP_temperature;BMP_pressure;BME280_temperature;BME280_humidity;BME280_pressure;Samples;Min_cycle;Max_cycle;Signal;HPM_P1;HPM_P2
2023/05/04 00:00:25;;;;;;;8.82;4.13;;;;;;;;;;4884933;29;20044;-71
2023/05/04 00:02:51;;;;;;;7.82;3.97;;;;;;;;;;4900648;29;20533;-71
2023/05/04 00:05:17;;;;;;;7.63;4.10;;;;;;;;;;4885174;29;20393;-71
2023/05/04 00:07:43;;;;;;;10.73;4.32;;;;;;;;;;4900370;29;20119;-71
2023/05/04 00:10:09;;;;;;;6.20;3.88;;;;;;;;;;4900434;29;20044;-71
2023/05/04 00:12:36;;;;;;;11.30;4.30;;;;;;;;;;4885036;29;20377;-71
2023/05/04 00:15:02;;;;;;;8.95;4.10;;;;;;;;;;4900337;29;20485;-71
2023/05/04 00:17:29;;;;;;;7.97;3.88;;;;;;;;;;4900256;29;20055;-71
2023/05/04 00:19:55;;;;;;;10.30;3.83;;;;;;;;;;4900261;29;20508;-71
2023/05/04 00:22:21;;;;;;;9.43;4.20;;;;;;;;;;4900602;29;20539;-71
2023/05/04 00:24:47;;;;;;;7.43;4.30;;;;;;;;;;4917165;29;20052;-71
2023/05/04 00:27:13;;;;;;;9.85;4.07;;;;;;;;;;4900291;29;20055;-71
2023/05/04 00:29:39;;;;;;;8.50;4.28;;;;;;;;;;4884469;29;20512;-71
2023/05/04 00:32:05;;;;;;;7.30;4.07;;;;;;;;;;4899861;29;20493;-71
2023/05/04 00:34:35;;;;;;;10.43;4.28;;;;;;;;;;4900434;29;20052;-71
2023/05/04 00:37:01;;;;;;;12.88;4.43;;;;;;;;;;4900339;29;20572;-71
2023/05/04 00:39:28;;;;;;;7.47;4.55;;;;;;;;;;4899941;29;20127;-69
2023/05/04 00:41:54;;;;;;;8.68;4.50;;;;;;;;;;4884725;29;20059;-69
2023/05/04 00:44:22;;;;;;;8.23;3.97;;;;;;;;;;4900129;29;20059;-69
2023/05/04 00:46:49;;;;;;;7.88;4.70;;;;;;;;;;4900091;29;20095;-69
2023/05/04 00:49:15;;;;;;;7.20;4.00;;;;;;;;;;4885846;29;20080;-69
2023/05/04 00:51:41;;;;;;;5.65;3.67;;;;;;;;;;4903656;29;20123;-70
2023/05/04 00:54:07;;;;;;;9.32;4.60;;;;;;;;;;4903707;29;20052;-71
2023/05/04 00:56:39;;;;;;;9.48;4.53;;;7.60;99.90;;;;;;4888328;29;20445;-71
2023/05/04 00:59:06;;;;;;;11.13;4.13;;;;;;;;;;4903734;29;20095;-69
2023/05/04 01:01:32;;;;;;;6.75;4.25;;;;;;;;;;4903817;29;20051;-70
2023/05/04 01:03:58;;;;;;;9.95;4.40;;;;;;;;;;4903645;29;20080;-69
2023/05/04 01:06:30;;;;;;;9.15;3.97;;;;;;;;;;4903552;29;20044;-69
2023/05/04 01:09:06;;;;;;;7.03;4.22;;;7.60;99.90;;;;;;4903465;29;20462;-69
2023/05/04 01:11:40;;;;;;;9.93;4.28;;;7.40;99.90;;;;;;4903426;29;20054;-69
2023/05/04 01:14:06;;;;;;;10.25;4.50;;;;;;;;;;4920438;29;20390;-70
2023/05/04 01:16:32;;;;;;;8.88;4.50;;;;;;;;;;4903538;29;20040;-70
2023/05/04 01:18:58;;;;;;;12.73;4.95;;;;;;;;;;4903342;29;20044;-69
2023/05/04 01:21:28;;;;;;;10.85;4.22;;;7.40;99.90;;;;;;4887807;29;20484;-69
2023/05/04 01:23:55;;;;;;;6.78;4.18;;;;;;;;;;4903364;29;20043;-69
2023/05/04 01:26:28;;;;;;;7.90;4.28;;;7.40;99.90;;;;;;4903341;29;20052;-70
2023/05/04 01:29:10;;;;;;;9.68;4.30;;;7.40;99.90;;;;;;4903238;29;20048;-69
2023/05/04 01:31:37;;;;;;;7.20;4.20;;;7.50;99.90;;;;;;4903109;29;20047;-69
2023/05/04 01:34:05;;;;;;;9.60;4.40;;;7.10;99.90;;;;;;4887394;29;20052;-70
2023/05/04 01:36:32;;;;;;;7.32;4.32;;;7.20;99.90;;;;;;4903119;29;20510;-69
2023/05/04 01:38:58;;;;;;;8.48;4.75;;;;;;;;;;4920052;29;20077;-69
2023/05/04 01:41:26;;;;;;;10.13;4.65;;;;;;;;;;4919983;29;20044;-69
2023/05/04 01:43:53;;;;;;;7.47;4.60;;;;;;;;;;4902951;29;20138;-69
2023/05/04 01:46:19;;;;;;;8.05;4.32;;;;;;;;;;4919863;29;20055;-72
2023/05/04 01:48:45;;;;;;;9.77;5.70;;;;;;;;;;4887249;29;20052;-72
2023/05/04 01:51:11;;;;;;;8.93;4.57;;;;;;;;;;4902863;29;20079;-72
2023/05/04 01:53:37;;;;;;;5.47;4.20;;;;;;;;;;4871853;29;20072;-72
2023/05/04 01:56:03;;;;;;;11.38;5.40;;;;;;;;;;4871787;29;20044;-72
2023/05/04 01:58:30;;;;;;;11.32;4.50;;;;;;;;;;4902582;29;20047;-72
2023/05/04 02:00:58;;;;;;;9.60;5.50;;;;;;;;;;4902912;29;20123;-71
2023/05/04 02:03:24;;;;;;;8.63;4.40;;;7.10;99.90;;;;;;4902793;29;20095;-71
2023/05/04 02:05:50;;;;;;;8.45;4.50;;;;;;;;;;4902735;29;20051;-71
2023/05/04 02:08:16;;;;;;;12.73;4.88;;;;;;;;;;4919518;29;20044;-72
2023/05/04 02:10:42;;;;;;;12.65;5.30;;;;;;;;;;4902776;29;20370;-71
2023/05/04 02:13:08;;;;;;;8.27;4.60;;;;;;;;;;4902509;29;20054;-71
2023/05/04 02:15:34;;;;;;;14.13;5.72;;;;;;;;;;4902298;29;20044;-71
2023/05/04 02:18:00;;;;;;;6.50;4.32;;;;;;;;;;4902389;29;20128;-71
2023/05/04 02:20:27;;;;;;;10.07;4.80;;;;;;;;;;4902627;29;20393;-71
2023/05/04 02:22:53;;;;;;;9.70;5.10;;;;;;;;;;4902799;29;20039;-71
2023/05/04 02:25:19;;;;;;;9.27;4.55;;;;;;;;;;4902441;29;20055;-72
2023/05/04 02:27:45;;;;;;;9.55;4.75;;;;;;;;;;4886526;29;20551;-72
2023/05/04 02:30:11;;;;;;;8.93;4.60;;;;;;;;;;4902115;29;20060;-72
2023/05/04 02:32:37;;;;;;;9.73;4.95;;;;;;;;;;4901800;29;20486;-71
2023/05/04 02:35:04;;;;;;;11.98;5.20;;;;;;;;;;4902076;29;20122;-71
2023/05/04 02:37:30;;;;;;;8.88;4.70;;;;;;;;;;4902145;29;20051;-71
2023/05/04 02:39:59;;;;;;;6.75;4.60;;;;;;;;;;4918980;29;20118;-70
2023/05/04 02:42:25;;;;;;;7.72;4.82;;;;;;;;;;4918913;29;20128;-70
2023/05/04 02:44:51;;;;;;;8.85;4.90;;;;;;;;;;4918872;29;20055;-70
2023/05/04 02:47:17;;;;;;;8.57;4.53;;;;;;;;;;4901907;29;20481;-70
2023/05/04 02:49:43;;;;;;;12.45;4.88;;;;;;;;;;4918938;29;20044;-70
2023/05/04 02:52:09;;;;;;;11.35;5.20;;;;;;;;;;4886129;29;20446;-68
2023/05/04 02:54:37;;;;;;;6.28;4.45;;;;;;;;;;4918589;29;20032;-68
2023/05/04 02:57:03;;;;;;;10.50;4.78;;;;;;;;;;4886167;29;20066;-68
2023/05/04 02:59:29;;;;;;;9.23;4.72;;;;;;;;;;4901755;29;20096;-68
2023/05/04 03:01:55;;;;;;;10.77;4.90;;;6.00;99.90;;;;;;4901400;29;20504;-68
2023/05/04 03:04:21;;;;;;;8.48;5.07;;;;;;;;;;4901823;29;20056;-68
2023/05/04 03:06:47;;;;;;;9.40;4.70;;;;;;;;;;4918481;29;20147;-68
2023/05/04 03:09:13;;;;;;;12.15;4.63;;;;;;;;;;4901068;29;20125;-69
2023/05/04 03:11:39;;;;;;;10.38;4.93;;;;;;;;;;4900705;29;20048;-69
2023/05/04 03:14:06;;;;;;;10.30;5.05;;;;;;;;;;4901488;29;20378;-69
2023/05/04 03:16:32;;;;;;;9.63;4.80;;;;;;;;;;4901494;29;20080;-69
2023/05/04 03:18:58;;;;;;;13.88;5.97;;;;;;;;;;4885798;29;20040;-69
2023/05/04 03:21:24;;;;;;;10.68;4.97;;;;;;;;;;4901451;29;20180;-69
2023/05/04 03:23:50;;;;;;;8.00;5.32;;;;;;;;;;4870167;29;20055;-69
2023/05/04 03:26:16;;;;;;;9.68;4.93;;;;;;;;;;4918269;29;20400;-71
2023/05/04 03:28:42;;;;;;;9.00;4.72;;;;;;;;;;4885730;29;20048;-71
2023/05/04 03:31:09;;;;;;;11.52;5.30;;;;;;;;;;4900978;29;20096;-71
2023/05/04 03:33:36;;;;;;;10.00;5.05;;;;;;;;;;4900744;29;20060;-71
2023/05/04 03:36:02;;;;;;;8.15;4.65;;;;;;;;;;4900868;29;20052;-71
2023/05/04 03:38:28;;;;;;;11.23;4.90;;;;;;;;;;4900969;29;20124;-71
2023/05/04 03:40:55;;;;;;;11.35;5.53;;;;;;;;;;4901125;29;20385;-71
2023/05/04 03:43:21;;;;;;;9.65;5.47;;;;;;;;;;4885430;29;20058;-71
2023/05/04 03:45:47;;;;;;;11.57;4.85;;;;;;;;;;4900631;29;20572;-71
2023/05/04 03:48:13;;;;;;;8.98;4.97;;;;;;;;;;4885279;29;20347;-71
2023/05/04 03:50:39;;;;;;;9.77;6.10;;;;;;;;;;4900662;29;20157;-71
2023/05/04 03:53:05;;;;;;;9.32;5.22;;;;;;;;;;4884971;29;20051;-71
2023/05/04 03:55:31;;;;;;;15.60;5.50;;;;;;;;;;4900500;29;20044;-71
2023/05/04 03:57:57;;;;;;;10.10;6.38;;;;;;;;;;4900445;29;20485;-69
2023/05/04 04:00:23;;;;;;;12.77;6.15;;;;;;;;;;4900829;29;20048;-69
2023/05/04 04:02:49;;;;;;;9.93;5.97;;;;;;;;;;4900525;29;20052;-69
2023/05/04 04:05:16;;;;;;;13.32;5.88;;;;;;;;;;4900716;29;20059;-69
2023/05/04 04:07:42;;;;;;;11.85;5.57;;;;;;;;;;4900302;29;20560;-69
2023/05/04 04:10:08;;;;;;;9.68;5.78;;;;;;;;;;4901071;29;20039;-70
2023/05/04 04:12:35;;;;;;;11.00;5.68;;;;;;;;;;4900776;29;20066;-70
2023/05/04 04:15:01;;;;;;;13.75;5.80;;;;;;;;;;4900613;29;20040;-70
2023/05/04 04:17:27;;;;;;;9.63;5.85;;;;;;;;;;4917273;29;20084;-70
2023/05/04 04:19:53;;;;;;;12.18;6.22;;;;;;;;;;4900177;29;20047;-69
2023/05/04 04:22:19;;;;;;;11.57;5.85;;;;;;;;;;4884872;29;20187;-69
2023/05/04 04:24:45;;;;;;;10.07;6.10;;;;;;;;;;4899404;29;20044;-69
2023/05/04 04:27:11;;;;;;;13.73;6.13;;;;;;;;;;4900422;29;20059;-69
2023/05/04 04:29:38;;;;;;;12.02;5.97;;;;;;;;;;4900037;29;20076;-69
2023/05/04 04:32:04;;;;;;;13.55;6.10;;;;;;;;;;4899984;29;20044;-71
2023/05/04 04:34:30;;;;;;;11.23;6.13;;;;;;;;;;4899907;29;20107;-71
2023/05/04 04:36:57;;;;;;;14.07;6.25;;;;;;;;;;4917105;29;20044;-71
2023/05/04 04:39:23;;;;;;;12.65;6.40;;;;;;;;;;4900451;29;20054;-71
2023/05/04 04:41:50;;;;;;;14.68;5.93;;;;;;;;;;4899975;29;20442;-71
2023/05/04 04:44:16;;;;;;;8.85;6.45;;;;;;;;;;4900354;29;20079;-71
2023/05/04 04:46:43;;;;;;;11.60;6.35;;;;;;;;;;4900048;29;20535;-69
2023/05/04 04:49:11;;;;;;;11.40;6.20;;;;;;;;;;4900330;29;20501;-69
2023/05/04 04:51:37;;;;;;;9.95;5.57;;;;;;;;;;4899786;29;20052;-69
2023/05/04 04:54:03;;;;;;;14.18;5.97;;;;;;;;;;4899868;29;20097;-70
2023/05/04 04:56:29;;;;;;;10.07;6.03;;;;;;;;;;4884578;29;20090;-70
2023/05/04 04:58:55;;;;;;;10.68;6.00;;;;;;;;;;4900062;29;20103;-70
2023/05/04 05:01:21;;;;;;;11.73;6.07;;;;;;;;;;4900008;29;20051;-69
2023/05/04 05:03:48;;;;;;;13.00;6.18;;;;;;;;;;4899994;29;20118;-70
2023/05/04 05:06:15;;;;;;;10.82;6.38;;;;;;;;;;4900020;29;20074;-69
2023/05/04 05:08:42;;;;;;;13.57;5.95;;;;;;;;;;4900100;29;20036;-71
2023/05/04 05:11:09;;;;;;;10.10;6.28;;;7.20;99.90;;;;;;4884440;29;20048;-71
2023/05/04 05:13:36;;;;;;;12.93;6.00;;;;;;;;;;4900155;29;20151;-71
2023/05/04 05:16:01;;;;;;;14.15;6.38;;;7.50;99.90;;;;;;4899999;29;20453;-71
2023/05/04 05:18:28;;;;;;;15.45;7.80;;;;;;;;;;4899816;29;20048;-71
2023/05/04 05:20:54;;;;;;;13.57;6.85;;;;;;;;;;4884170;29;20044;-71
2023/05/04 05:23:20;;;;;;;12.68;5.85;;;;;;;;;;4899971;29;20100;-71
2023/05/04 05:25:46;;;;;;;11.85;6.38;;;7.20;99.90;;;;;;4899714;29;20139;-71
2023/05/04 05:28:16;;;;;;;14.32;7.03;;;7.30;99.90;;;;;;4884261;29;20074;-71
2023/05/04 05:30:42;;;;;;;10.85;6.40;;;;;;;;;;4899821;29;20052;-72
2023/05/04 05:33:09;;;;;;;10.95;6.35;;;;;;;;;;4899455;29;20096;-72
2023/05/04 05:35:35;;;;;;;10.90;5.95;;;;;;;;;;4901167;29;20410;-71
2023/05/04 05:38:01;;;;;;;9.80;5.80;;;;;;;;;;4902906;29;20040;-71
2023/05/04 05:40:28;;;;;;;13.68;6.05;;;;;;;;;;4903170;29;20071;-71
2023/05/04 05:42:54;;;;;;;12.98;6.50;;;;;;;;;;4903074;29;20485;-71
2023/05/04 05:45:20;;;;;;;13.43;6.15;;;;;;;;;;4887123;29;20092;-72
2023/05/04 05:47:46;;;;;;;13.55;6.60;;;;;;;;;;4903012;29;20048;-71
2023/05/04 05:50:13;;;;;;;14.82;6.78;;;;;;;;;;4902641;29;20052;-71
2023/05/04 05:52:39;;;;;;;12.93;6.90;;;;;;;;;;4887311;29;20488;-71
2023/05/04 05:55:05;;;;;;;11.63;6.03;;;;;;;;;;4902751;29;20048;-71
2023/05/04 05:57:31;;;;;;;13.15;6.25;;;;;;;;;;4887163;29;20481;-70
2023/05/04 05:59:57;;;;;;;12.68;6.00;;;;;;;;;;4902585;29;20087;-70
2023/05/04 06:02:23;;;;;;;9.68;6.35;;;;;;;;;;4902702;29;20054;-69
2023/05/04 06:04:49;;;;;;;11.90;5.68;;;;;;;;;;4886886;29;20054;-70
2023/05/04 06:07:16;;;;;;;11.40;6.00;;;;;;;;;;4902416;29;20044;-70
2023/05/04 06:09:42;;;;;;;17.00;5.90;;;;;;;;;;4886811;29;20095;-69
2023/05/04 06:12:11;;;;;;;13.13;5.95;;;;;;;;;;4902254;29;20051;-69
2023/05/04 06:14:37;;;;;;;11.90;6.15;;;;;;;;;;4902610;29;20079;-69
2023/05/04 06:17:03;;;;;;;14.52;6.07;;;;;;;;;;4886559;29;20048;-69
2023/05/04 06:19:29;;;;;;;11.05;5.72;;;;;;;;;;4886699;29;20055;-69
2023/05/04 06:21:55;;;;;;;15.93;6.70;;;;;;;;;;4902255;29;20055;-69
2023/05/04 06:24:23;;;;;;;9.90;5.35;;;;;;;;;;4906071;29;20087;-69
2023/05/04 06:26:50;;;;;;;10.25;5.57;;;;;;;;;;4920557;29;20048;-69
2023/05/04 06:29:16;;;;;;;12.82;6.88;;;;;;;;;;4886773;29;20055;-69
2023/05/04 06:31:42;;;;;;;14.90;5.88;;;;;;;;;;4902068;29;20040;-69
2023/05/04 06:34:08;;;;;;;10.98;5.43;;;;;;;;;;4901936;29;20119;-70
2023/05/04 06:36:35;;;;;;;13.63;5.57;;;;;;;;;;4886464;29;20126;-69
2023/05/04 06:39:01;;;;;;;11.15;6.13;;;;;;;;;;4901751;29;20044;-69
2023/05/04 06:41:27;;;;;;;9.63;5.38;;;;;;;;;;4901772;29;20052;-70
2023/05/04 06:43:53;;;;;;;15.98;5.88;;;;;;;;;;4902092;29;20074;-70
2023/05/04 06:46:20;;;;;;;11.27;5.53;;;;;;;;;;4901246;29;20096;-70
2023/05/04 06:48:46;;;;;;;13.15;5.82;;;;;;;;;;4870929;29;20044;-71
2023/05/04 06:51:12;;;;;;;12.15;5.72;;;;;;;;;;4886059;29;20047;-71
2023/05/04 06:53:38;;;;;;;14.32;5.85;;;;;;;;;;4901826;29;20099;-70
2023/05/04 06:56:04;;;;;;;10.88;5.40;;;;;;;;;;4901562;29;20051;-71
2023/05/04 06:58:30;;;;;;;15.70;6.95;;;;;;;;;;4901515;29;20048;-71
2023/05/04 07:00:56;;;;;;;14.77;5.88;;;;;;;;;;4885771;29;20129;-71
2023/05/04 07:03:22;;;;;;;13.70;5.70;;;;;;;;;;4901292;29;20052;-71
2023/05/04 07:05:49;;;;;;;15.38;5.72;;;;;;;;;;4918194;29;20040;-71
2023/05/04 07:08:16;;;;;;;11.18;5.35;;;;;;;;;;4901243;29;20099;-71
2023/05/04 07:10:43;;;;;;;10.82;5.75;;;;;;;;;;4918193;29;20059;-71
2023/05/04 07:13:09;;;;;;;15.93;6.35;;;;;;;;;;4918129;29;20044;-71
2023/05/04 07:15:35;;;;;;;11.80;5.88;;;;;;;;;;4885652;29;20099;-71
2023/05/04 07:18:01;;;;;;;13.88;6.03;;;;;;;;;;4885434;29;20040;-70
2023/05/04 07:20:28;;;;;;;10.80;6.13;;;;;;;;;;4901327;29;20051;-70
2023/05/04 07:22:57;;;;;;;15.98;6.65;;;;;;;;;;4900968;29;20112;-69
2023/05/04 07:25:24;;;;;;;12.23;6.28;;;9.90;99.90;;;;;;4900816;29;20059;-69
2023/05/04 07:27:50;;;;;;;14.90;5.80;;;;;;;;;;4885517;29;20134;-70
2023/05/04 07:30:16;;;;;;;11.23;5.88;;;;;;;;;;4900842;29;20054;-70
2023/05/04 07:32:42;;;;;;;14.38;6.20;;;;;;;;;;4900703;29;20048;-70
2023/05/04 07:35:09;;;;;;;9.95;5.47;;;;;;;;;;4900985;29;20055;-70
2023/05/04 07:37:35;;;;;;;9.75;6.05;;;;;;;;;;4900874;29;20127;-70
2023/05/04 07:40:04;;;;;;;11.15;5.95;;;;;;;;;;4900643;29;20044;-70
2023/05/04 07:42:30;;;;;;;15.30;6.65;;;;;;;;;;4900664;29;20056;-70
2023/05/04 07:44:56;;;;;;;17.23;6.38;;;;;;;;;;4885093;29;20064;-70
2023/05/04 07:47:22;;;;;;;11.75;5.80;;;;;;;;;;4885027;29;20131;-69
2023/05/04 07:49:48;;;;;;;22.98;7.75;;;;;;;;;;4900727;29;20052;-69
2023/05/04 07:52:14;;;;;;;12.82;6.38;;;;;;;;;;4900496;29;20040;-69
2023/05/04 07:54:40;;;;;;;12.65;6.15;;;;;;;;;;4900430;29;20052;-69
2023/05/04 07:57:07;;;;;;;14.13;5.70;;;;;;;;;;4900617;29;20071;-69
2023/05/04 07:59:33;;;;;;;14.82;7.07;;;;;;;;;;4900275;29;20044;-69
2023/05/04 08:01:59;;;;;;;12.07;6.38;;;;;;;;;;4900404;29;20048;-69
2023/05/04 08:04:25;;;;;;;13.48;6.47;;;;;;;;;;4885119;29;20051;-69
2023/05/04 08:06:51;;;;;;;12.55;5.82;;;;;;;;;;4900441;29;20048;-70
2023/05/04 08:09:18;;;;;;;17.00;6.40;;;;;;;;;;4900524;29;20048;-70
2023/05/04 08:11:47;;;;;;;11.60;5.90;;;;;;;;;;4900137;29;20056;-70
2023/05/04 08:14:13;;;;;;;19.83;6.72;;;;;;;;;;4900445;29;20132;-70
2023/05/04 08:16:40;;;;;;;12.82;6.18;;;;;;;;;;4900259;29;20048;-70
2023/05/04 08:19:06;;;;;;;15.13;6.20;;;;;;;;;;4900402;29;20044;-70
2023/05/04 08:21:32;;;;;;;10.77;6.75;;;;;;;;;;4900102;29;20190;-70
2023/05/04 08:23:58;;;;;;;12.70;5.90;;;;;;;;;;4900092;29;20540;-70
2023/05/04 08:26:25;;;;;;;11.88;6.53;;;;;;;;;;4884841;29;20047;-69
2023/05/04 08:28:51;;;;;;;15.98;6.35;;;;;;;;;;4900399;29;20131;-68
2023/05/04 08:31:17;;;;;;;10.48;6.20;;;;;;;;;;4899991;29;20056;-68
2023/05/04 08:33:45;;;;;;;12.07;6.07;;;;;;;;;;4899797;29;20060;-68
2023/05/04 08:36:11;;;;;;;16.13;6.47;;;;;;;;;;4916950;29;20047;-69
2023/05/04 08:38:37;;;;;;;12.05;6.18;;;;;;;;;;4884512;29;20369;-68
2023/05/04 08:41:03;;;;;;;14.70;5.68;;;;;;;;;;4900158;29;20044;-68
2023/05/04 08:43:30;;;;;;;11.05;6.22;;;;;;;;;;4899897;29;20052;-70
2023/05/04 08:45:56;;;;;;;13.27;6.05;;;;;;;;;;4899933;29;20404;-70
2023/05/04 08:48:22;;;;;;;17.05;6.85;;;;;;;;;;4900464;29;20067;-69
2023/05/04 08:50:48;;;;;;;15.73;6.07;;;;;;;;;;4899973;29;20081;-69
2023/05/04 08:53:15;;;;;;;14.30;5.82;;;;;;;;;;4884495;29;20032;-70
2023/05/04 08:55:42;;;;;;;14.60;6.20;;;;;;;;;;4899854;29;20051;-69
2023/05/04 08:58:11;;;;;;;12.00;6.28;;;12.20;99.90;;;;;;4899831;29;20503;-69
2023/05/04 09:00:38;;;;;;;13.55;6.20;;;12.50;99.90;;;;;;4916844;29;20111;-70
2023/05/04 09:03:06;;;;;;;12.48;5.68;;;;;;;;;;4899925;29;20060;-69
2023/05/04 09:05:32;;;;;;;11.95;5.78;;;;;;;;;;4916694;29;20095;-69
2023/05/04 09:08:01;;;;;;;11.55;6.22;;;;;;;;;;4899930;29;20047;-69
2023/05/04 09:10:27;;;;;;;11.32;5.95;;;;;;;;;;4918381;29;20096;-69
2023/05/04 09:12:56;;;;;;;11.52;5.50;;;;;;;;;;4903788;29;20131;-69
2023/05/04 09:15:23;;;;;;;14.60;5.47;;;;;;;;;;4903465;29;20075;-70
2023/05/04 09:18:00;;;;;;;12.70;5.57;;;;;;;;;;4887955;29;20063;-71
2023/05/04 09:20:26;;;;;;;12.93;6.07;;;;;;;;;;4920230;29;20048;-71
2023/05/04 09:23:08;;;;;;;12.60;5.72;;;;;;;;;;4903428;29;20048;-71
2023/05/04 09:25:50;;;;;;;9.90;5.90;;;13.60;99.90;;;;;;4903443;29;20161;-71
2023/05/04 09:28:17;;;;;;;9.05;5.60;;;;;;;;;;4887563;29;20477;-71
2023/05/04 09:30:44;;;;;;;11.93;6.32;;;;;;;;;;4903187;29;20132;-71
2023/05/04 09:33:10;;;;;;;12.30;6.10;;;13.20;99.90;;;;;;4902921;29;20048;-71
2023/05/04 09:35:40;;;;;;;12.23;6.88;;;13.90;99.90;;;;;;4887387;29;20108;-71
2023/05/04 09:38:06;;;;;;;14.73;6.13;;;;;;;;;;4920138;29;20461;-71
2023/05/04 09:40:32;;;;;;;13.50;5.88;;;;;;;;;;4902894;29;20127;-71
2023/05/04 09:42:58;;;;;;;12.65;6.13;;;;;;;;;;4902852;29;20438;-71
2023/05/04 09:45:25;;;;;;;12.85;5.85;;;;;;;;;;4919749;29;20044;-71
2023/05/04 09:47:53;;;;;;;13.05;6.05;;;;;;;;;;4887178;29;20175;-71
2023/05/04 09:50:32;;;;;;;14.50;5.47;;;13.10;99.90;;;;;;4902831;29;20393;-71
2023/05/04 09:52:58;;;;;;;11.07;5.55;;;;;;;;;;4902979;29;20055;-71
2023/05/04 09:55:25;;;;;;;12.27;6.00;;;;;;;;;;4887166;29;20044;-71
2023/05/04 09:57:51;;;;;;;13.32;5.57;;;;;;;;;;4902483;29;20055;-71
2023/05/04 10:00:17;;;;;;;11.70;6.13;;;;;;;;;;4902867;29;20039;-71
2023/05/04 10:02:45;;;;;;;11.50;5.88;;;;;;;;;;4887044;29;20084;-71
2023/05/04 10:05:15;;;;;;;8.23;5.53;;;14.60;99.90;;;;;;4919362;29;20096;-71
2023/05/04 10:07:42;;;;;;;13.20;5.70;;;14.40;99.90;;;;;;4902713;29;20048;-71
2023/05/04 10:10:11;;;;;;;12.20;6.10;;;;;;;;;;4902195;29;20040;-71
2023/05/04 10:12:37;;;;;;;12.10;5.80;;;;;;;;;;4902213;29;20090;-71
2023/05/04 10:15:10;;;;;;;11.70;6.00;;;14.70;99.90;;;;;;4902215;29;20044;-71
2023/05/04 10:17:48;;;;;;;11.00;5.40;;;14.70;99.90;;;;;;4902270;29;20048;-71
2023/05/04 10:20:29;;;;;;;11.18;5.45;;;;;;;;;;4902473;29;20043;-71
2023/05/04 10:23:07;;;;;;;16.95;5.20;;;14.80;99.90;;;;;;4901367;29;20128;-72
2023/05/04 10:25:54;;;;;;;8.18;5.50;;;14.80;99.90;;;;;;4902568;29;20056;-71
2023/05/04 10:28:20;;;;;;;11.27;5.20;;;;;;;;;;4886566;29;20123;-71
2023/05/04 10:30:46;;;;;;;12.10;5.90;;;;;;;;;;4902047;29;20052;-71
2023/05/04 10:33:12;;;;;;;15.82;5.70;;;;;;;;;;4918850;29;20056;-71
2023/05/04 10:35:52;;;;;;;11.70;5.40;;;15.70;99.90;;;;;;4902335;29;20481;-71
2023/05/04 10:38:18;;;;;;;14.18;5.82;;;;;;;;;;4902117;29;20434;-71
2023/05/04 10:40:47;;;;;;;15.10;5.90;;;;;;;;;;4901799;29;20051;-72
2023/05/04 10:43:24;;;;;;;12.70;6.13;;;15.80;99.90;;;;;;4901735;29;20084;-71
2023/05/04 10:45:50;;;;;;;12.45;5.80;;;;;;;;;;4901906;29;20055;-71
2023/05/04 10:48:16;;;;;;;14.18;5.38;;;16.80;99.90;;;;;;4886156;29;20051;-72
2023/05/04 10:50:42;;;;;;;13.30;5.30;;;;;;;;;;4901458;29;20048;-71
2023/05/04 10:53:09;;;;;;;16.45;6.00;;;;;;;;;;4901850;29;20107;-72
2023/05/04 10:55:44;;;;;;;11.77;6.10;;;16.50;99.90;;;;;;4901521;29;20453;-71
2023/05/04 10:58:13;;;;;;;11.82;4.82;;;16.40;99.90;;;;;;4901278;29;20044;-72
2023/05/04 11:00:45;;;;;;;9.60;4.95;;;16.50;99.90;;;;;;4901254;29;20520;-71
2023/05/04 11:03:11;;;;;;;10.18;5.45;;;;;;;;;;4885643;29;20054;-72
2023/05/04 11:05:41;;;;;;;9.88;5.38;;;;;;;;;;4885683;29;20052;-71
2023/05/04 11:08:23;;;;;;;15.27;5.03;;;17.50;99.90;;;;;;4901463;29;20071;-71
2023/05/04 11:11:20;;;;;;;13.20;5.50;;;16.90;99.90;;;;;;4918096;29;20397;-71
2023/05/04 11:13:46;;;;;;;8.68;5.13;;;;;;;;;;4882910;29;20063;-70
2023/05/04 11:16:25;;;;;;;10.80;5.13;;;17.20;99.90;;;;;;4901138;29;20044;-70
2023/05/04 11:18:52;;;;;;;10.05;5.35;;;;;;;;;;4901096;29;20504;-70
2023/05/04 11:21:25;;;;;;;7.45;4.95;;;;;;;;;;4885789;29;20126;-70
2023/05/04 11:23:55;;;;;;;10.48;5.20;;;16.80;99.90;;;;;;4901080;29;20096;-70
2023/05/04 11:26:23;;;;;;;11.32;4.75;;;;;;;;;;4901047;29;20063;-70
2023/05/04 11:28:49;;;;;;;9.05;5.28;;;;;;;;;;4900823;29;20409;-71
2023/05/04 11:31:20;;;;;;;10.10;4.88;;;16.80;99.90;;;;;;4900878;29;20079;-71
2023/05/04 11:33:53;;;;;;;13.25;5.10;;;;;;;;;;4900331;29;20056;-71
2023/05/04 11:36:20;;;;;;;32.08;6.97;;;;;;;;;;4901120;29;20140;-71
2023/05/04 11:38:48;;;;;;;10.93;4.68;;;18.00;99.90;;;;;;4901032;29;20082;-71
2023/05/04 11:41:14;;;;;;;8.20;4.38;;;;;;;;;;4900696;29;20059;-71
2023/05/04 11:43:42;;;;;;;9.52;4.63;;;17.30;99.90;;;;;;4900867;29;20433;-72
2023/05/04 11:46:10;;;;;;;8.80;4.95;;;16.60;99.90;;;;;;4900967;29;20052;-71
2023/05/04 11:48:36;;;;;;;10.48;4.93;;;;;;;;;;4917684;29;20123;-71
2023/05/04 11:51:02;;;;;;;9.73;4.90;;;;;;;;;;4900645;29;20056;-71
2023/05/04 11:53:39;;;;;;;25.02;5.95;;;17.80;99.90;;;;;;4900560;29;20553;-71
2023/05/04 11:56:07;;;;;;;13.05;5.07;;;;;;;;;;4917474;29;20507;-71
2023/05/04 11:58:33;;;;;;;10.43;4.80;;;;;;;;;;4884916;29;20083;-71
2023/05/04 12:00:59;;;;;;;7.75;4.72;;;;;;;;;;4900327;29;20040;-71
2023/05/04 12:03:28;;;;;;;8.10;4.63;;;16.80;99.90;;;;;;4884920;29;20044;-72
2023/05/04 12:05:58;;;;;;;8.77;5.20;;;17.80;99.90;;;;;;4900406;29;20509;-72
2023/05/04 12:08:35;;;;;;;12.13;5.22;;;17.70;99.90;;;;;;4900248;29;20441;-72
2023/05/04 12:11:08;;;;;;;51.92;9.63;;;18.50;99.90;;;;;;4900438;29;20048;-72
2023/05/04 12:13:35;;;;;;;9.60;5.03;;;;;;;;;;4917461;29;20044;-71
2023/05/04 12:16:19;;;;;;;7.55;4.85;;;18.40;99.90;;;;;;4884592;29;20050;-71
2023/05/04 12:18:46;;;;;;;10.68;5.38;;;18.40;99.90;;;;;;4917141;29;20048;-72
2023/05/04 12:21:20;;;;;;;10.48;5.68;;;19.30;99.90;;;;;;4900413;29;20102;-72
2023/05/04 12:23:46;;;;;;;7.63;4.78;;;;;;;;;;4900199;29;20050;-72
2023/05/04 12:26:13;;;;;;;7.50;5.28;;;;;;;;;;4917378;29;20483;-71
2023/05/04 12:28:40;;;;;;;9.80;4.95;;;18.80;99.90;;;;;;4900169;29;20123;-72
2023/05/04 12:31:06;;;;;;;10.45;5.72;;;;;;;;;;4900159;29;20044;-71
2023/05/04 12:33:33;;;;;;;8.10;5.15;;;18.90;99.90;;;;;;4899978;29;20062;-71
2023/05/04 12:36:00;;;;;;;13.05;5.50;;;18.90;99.90;;;;;;4900286;29;20048;-71
2023/05/04 12:38:27;;;;;;;12.23;5.55;;;18.90;99.90;;;;;;4899962;29;20048;-71
2023/05/04 12:40:53;;;;;;;11.07;5.82;;;19.00;99.90;;;;;;4900381;29;20103;-72
2023/05/04 12:43:21;;;;;;;11.55;5.72;;;;;;;;;;4900505;29;20068;-72
2023/05/04 12:45:49;;;;;;;8.98;5.85;;;19.10;99.90;;;;;;4902257;29;20056;-72
2023/05/04 12:48:15;;;;;;;72.60;12.63;;;20.10;99.90;;;;;;4904027;29;20119;-72
2023/05/04 12:50:43;;;;;;;19.08;5.95;;;19.50;99.90;;;;;;4903774;29;20132;-71
2023/05/04 12:53:09;;;;;;;8.77;5.60;;;20.20;99.90;;;;;;4887994;29;20040;-71
2023/05/04 12:55:35;;;;;;;9.15;5.45;;;20.10;99.90;;;;;;4903572;29;20044;-72
2023/05/04 12:58:05;;;;;;;10.38;5.43;;;19.80;99.90;;;;;;4903449;29;20051;-72
2023/05/04 13:00:35;;;;;;;13.63;5.30;;;19.60;99.90;;;;;;4903670;29;20052;-72
2023/05/04 13:03:01;;;;;;;11.43;5.90;;;20.10;99.90;;;;;;4907866;29;20048;-72
2023/05/04 13:05:27;;;;;;;12.27;5.65;;;19.00;99.90;;;;;;4903777;29;20049;-72
2023/05/04 13:07:54;;;;;;;11.18;5.22;;;20.20;99.90;;;;;;4903339;29;20048;-72
2023/05/04 13:10:20;;;;;;;11.45;5.60;;;;;;;;;;4872555;29;20043;-72
2023/05/04 13:12:47;;;;;;;9.63;5.28;;;;;;;;;;4903380;29;20429;-71
2023/05/04 13:15:13;;;;;;;9.15;5.28;;;18.80;99.90;;;;;;4903301;29;20155;-71
2023/05/04 13:17:41;;;;;;;9.20;5.65;;;19.80;99.90;;;;;;4888108;29;20036;-71
2023/05/04 13:20:12;;;;;;;9.45;5.75;;;17.70;99.90;;;;;;4903472;29;20451;-72
2023/05/04 13:22:39;;;;;;;11.57;5.30;;;;;;;;;;4920116;29;20044;-72
2023/05/04 13:25:05;;;;;;;15.32;5.75;;;18.10;99.90;;;;;;4903221;29;20083;-72
2023/05/04 13:27:31;;;;;;;9.25;4.88;;;19.60;99.90;;;;;;4920221;29;20044;-71
2023/05/04 13:30:00;;;;;;;9.13;4.85;;;19.20;99.90;;;;;;4920053;29;20040;-72
2023/05/04 13:32:26;;;;;;;11.32;5.28;;;20.60;99.90;;;;;;4902897;29;20048;-71
2023/05/04 13:34:52;;;;;;;10.85;5.45;;;20.30;99.90;;;;;;4920017;29;20044;-72
2023/05/04 13:37:18;;;;;;;8.35;5.68;;;;;;;;;;4902953;29;20040;-72
2023/05/04 13:39:45;;;;;;;8.73;5.30;;;20.90;99.90;;;;;;4903013;29;20036;-72
2023/05/04 13:42:12;;;;;;;17.02;5.50;;;19.50;99.90;;;;;;4902975;29;20048;-72
2023/05/04 13:44:43;;;;;;;10.40;5.55;;;19.40;99.90;;;;;;4902864;29;20052;-71
2023/05/04 13:47:09;;;;;;;11.07;5.90;;;20.20;99.90;;;;;;4902797;29;20105;-70
2023/05/04 13:49:34;;;;;;;11.40;5.30;;;20.30;99.90;;;;;;4902728;29;20052;-71
2023/05/04 13:52:01;;;;;;;10.23;5.55;;;;;;;;;;4902813;29;20036;-70
2023/05/04 13:54:27;;;;;;;11.52;5.53;;;19.80;99.90;;;;;;4903000;29;20056;-71
2023/05/04 13:56:52;;;;;;;13.10;6.20;;;20.90;99.90;;;;;;4902316;29;20397;-71
2023/05/04 13:59:19;;;;;;;8.15;5.68;;;21.20;99.90;;;;;;4902595;29;20048;-71
2023/05/04 14:01:45;;;;;;;9.80;5.70;;;21.20;99.90;;;;;;4887088;29;20051;-71
2023/05/04 14:04:10;;;;;;;11.68;6.03;;;21.00;99.90;;;;;;4902556;29;20048;-71